sensor_id;sensor_type;location;lat;lon;timestamp;P1;durP1;ratioP1;P2;durP2;ratioP2
4698;SDS011;33708;49.466;11.176;2022-08-03T00:01:17;8.70;;;4.70;;
4698;SDS011;33708;49.466;11.176;2022-08-03T00:03:43;11.17;;;5.30;;
4698;SDS011;33708;49.466;11.176;2022-08-03T00:06:09;9.10;;;4.70;;
4698;SDS011;33708;49.466;11.176;2022-08-03T00:08:35;10.40;;;4.80;;
4698;SDS011;33708;49.466;11.176;2022-08-03T00:11:01;8.63;;;5.07;;
4698;SDS011;33708;49.466;11.176;2022-08-03T00:13:28;8.33;;;4.63;;
4698;SDS011;33708;49.466;11.176;2022-08-03T00:15:54;9.60;;;4.93;;
4698;SDS011;33708;49.466;11.176;2022-08-03T00:18:20;11.53;;;5.10;;
4698;SDS011;33708;49.466;11.176;2022-08-03T00:20:46;9.77;;;4.80;;
4698;SDS011;33708;49.466;11.176;2022-08-03T00:23:11;10.03;;;4.73;;
4698;SDS011;33708;49.466;11.176;2022-08-03T00:25:37;9.80;;;5.37;;
4698;SDS011;33708;49.466;11.176;2022-08-03T00:28:03;11.17;;;5.60;;
4698;SDS011;33708;49.466;11.176;2022-08-03T00:30:30;16.00;;;5.30;;
4698;SDS011;33708;49.466;11.176;2022-08-03T00:32:57;10.57;;;5.00;;
4698;SDS011;33708;49.466;11.176;2022-08-03T00:35:23;18.37;;;4.83;;
4698;SDS011;33708;49.466;11.176;2022-08-03T00:37:50;9.07;;;4.70;;
4698;SDS011;33708;49.466;11.176;2022-08-03T00:40:16;12.20;;;5.70;;
4698;SDS011;33708;49.466;11.176;2022-08-03T00:42:47;9.20;;;5.40;;
4698;SDS011;33708;49.466;11.176;2022-08-03T00:45:14;9.03;;;4.97;;
4698;SDS011;33708;49.466;11.176;2022-08-03T00:47:44;11.90;;;5.70;;
4698;SDS011;33708;49.466;11.176;2022-08-03T00:50:10;10.60;;;5.40;;
4698;SDS011;33708;49.466;11.176;2022-08-03T00:52:36;10.10;;;5.20;;
4698;SDS011;33708;49.466;11.176;2022-08-03T00:55:02;10.00;;;5.63;;
4698;SDS011;33708;49.466;11.176;2022-08-03T00:57:29;10.10;;;4.83;;
4698;SDS011;33708;49.466;11.176;2022-08-03T00:59:56;11.77;;;6.00;;
4698;SDS011;33708;49.466;11.176;2022-08-03T01:02:23;9.87;;;4.70;;
4698;SDS011;33708;49.466;11.176;2022-08-03T01:04:50;8.90;;;5.27;;
4698;SDS011;33708;49.466;11.176;2022-08-03T01:08:00;9.90;;;4.80;;
4698;SDS011;33708;49.466;11.176;2022-08-03T01:12:53;9.40;;;4.93;;
4698;SDS011;33708;49.466;11.176;2022-08-03T01:15:25;9.17;;;4.70;;
4698;SDS011;33708;49.466;11.176;2022-08-03T01:20:32;9.53;;;4.70;;
4698;SDS011;33708;49.466;11.176;2022-08-03T01:23:15;14.53;;;5.73;;
4698;SDS011;33708;49.466;11.176;2022-08-03T01:31:32;11.90;;;5.13;;
4698;SDS011;33708;49.466;11.176;2022-08-03T01:34:07;11.40;;;5.10;;
4698;SDS011;33708;49.466;11.176;2022-08-03T01:36:38;10.33;;;5.40;;
4698;SDS011;33708;49.466;11.176;2022-08-03T01:39:08;9.23;;;5.47;;
4698;SDS011;33708;49.466;11.176;2022-08-03T01:41:37;13.80;;;5.70;;
4698;SDS011;33708;49.466;11.176;2022-08-03T01:44:09;10.57;;;5.93;;
4698;SDS011;33708;49.466;11.176;2022-08-03T01:46:37;12.97;;;5.87;;
4698;SDS011;33708;49.466;11.176;2022-08-03T01:49:05;11.87;;;6.00;;
4698;SDS011;33708;49.466;11.176;2022-08-03T01:51:34;7.77;;;4.93;;
4698;SDS011;33708;49.466;11.176;2022-08-03T01:54:02;11.87;;;5.20;;
4698;SDS011;33708;49.466;11.176;2022-08-03T01:56:29;11.53;;;6.27;;
4698;SDS011;33708;49.466;11.176;2022-08-03T01:58:56;8.40;;;5.37;;
4698;SDS011;33708;49.466;11.176;2022-08-03T02:01:26;9.07;;;5.23;;
4698;SDS011;33708;49.466;11.176;2022-08-03T02:03:53;9.33;;;5.50;;
4698;SDS011;33708;49.466;11.176;2022-08-03T02:06:20;10.07;;;6.03;;
4698;SDS011;33708;49.466;11.176;2022-08-03T02:08:47;14.03;;;5.73;;
4698;SDS011;33708;49.466;11.176;2022-08-03T02:11:13;10.30;;;5.47;;
4698;SDS011;33708;49.466;11.176;2022-08-03T02:13:40;10.73;;;5.93;;
4698;SDS011;33708;49.466;11.176;2022-08-03T02:16:08;10.00;;;6.13;;
4698;SDS011;33708;49.466;11.176;2022-08-03T02:18:34;12.03;;;5.80;;
4698;SDS011;33708;49.466;11.176;2022-08-03T02:21:03;9.20;;;5.37;;
4698;SDS011;33708;49.466;11.176;2022-08-03T02:23:31;8.87;;;5.00;;
4698;SDS011;33708;49.466;11.176;2022-08-03T02:25:57;13.10;;;5.87;;
4698;SDS011;33708;49.466;11.176;2022-08-03T02:28:29;15.17;;;5.40;;
4698;SDS011;33708;49.466;11.176;2022-08-03T02:31:00;12.53;;;6.70;;
4698;SDS011;33708;49.466;11.176;2022-08-03T02:33:31;18.03;;;5.97;;
4698;SDS011;33708;49.466;11.176;2022-08-03T02:36:00;10.00;;;6.33;;
4698;SDS011;33708;49.466;11.176;2022-08-03T02:38:30;12.77;;;5.83;;
4698;SDS011;33708;49.466;11.176;2022-08-03T02:41:07;10.97;;;6.67;;
4698;SDS011;33708;49.466;11.176;2022-08-03T02:43:39;12.13;;;6.40;;
4698;SDS011;33708;49.466;11.176;2022-08-03T02:46:09;9.70;;;5.83;;
4698;SDS011;33708;49.466;11.176;2022-08-03T02:48:38;8.80;;;5.40;;
4698;SDS011;33708;49.466;11.176;2022-08-03T02:51:07;10.40;;;5.60;;
4698;SDS011;33708;49.466;11.176;2022-08-03T02:53:33;9.10;;;5.50;;
4698;SDS011;33708;49.466;11.176;2022-08-03T02:56:00;12.93;;;5.77;;
4698;SDS011;33708;49.466;11.176;2022-08-03T02:58:28;9.63;;;5.60;;
4698;SDS011;33708;49.466;11.176;2022-08-03T03:00:55;11.10;;;6.20;;
4698;SDS011;33708;49.466;11.176;2022-08-03T03:03:21;12.07;;;6.70;;
4698;SDS011;33708;49.466;11.176;2022-08-03T03:05:48;12.80;;;6.37;;
4698;SDS011;33708;49.466;11.176;2022-08-03T03:08:16;11.10;;;6.00;;
4698;SDS011;33708;49.466;11.176;2022-08-03T03:10:43;9.47;;;5.53;;
4698;SDS011;33708;49.466;11.176;2022-08-03T03:13:09;9.70;;;5.80;;
4698;SDS011;33708;49.466;11.176;2022-08-03T03:15:37;11.50;;;5.50;;
4698;SDS011;33708;49.466;11.176;2022-08-03T03:18:05;12.10;;;6.30;;
4698;SDS011;33708;49.466;11.176;2022-08-03T03:20:32;11.47;;;6.30;;
4698;SDS011;33708;49.466;11.176;2022-08-03T03:22:59;10.37;;;5.40;;
4698;SDS011;33708;49.466;11.176;2022-08-03T03:25:26;9.40;;;5.30;;
4698;SDS011;33708;49.466;11.176;2022-08-03T03:27:57;10.83;;;5.83;;
4698;SDS011;33708;49.466;11.176;2022-08-03T03:30:23;13.07;;;5.73;;
4698;SDS011;33708;49.466;11.176;2022-08-03T03:32:50;9.93;;;6.10;;
4698;SDS011;33708;49.466;11.176;2022-08-03T03:35:15;10.10;;;5.90;;
4698;SDS011;33708;49.466;11.176;2022-08-03T03:37:41;12.33;;;6.10;;
4698;SDS011;33708;49.466;11.176;2022-08-03T03:40:07;8.37;;;5.23;;
4698;SDS011;33708;49.466;11.176;2022-08-03T03:42:33;10.37;;;5.97;;
4698;SDS011;33708;49.466;11.176;2022-08-03T03:45:06;9.53;;;5.97;;
4698;SDS011;33708;49.466;11.176;2022-08-03T03:47:33;12.40;;;6.47;;
4698;SDS011;33708;49.466;11.176;2022-08-03T03:50:00;13.87;;;6.37;;
4698;SDS011;33708;49.466;11.176;2022-08-03T03:52:26;14.30;;;6.20;;
4698;SDS011;33708;49.466;11.176;2022-08-03T03:54:52;14.37;;;5.93;;
4698;SDS011;33708;49.466;11.176;2022-08-03T03:57:17;11.63;;;6.30;;
4698;SDS011;33708;49.466;11.176;2022-08-03T03:59:43;9.43;;;5.33;;
4698;SDS011;33708;49.466;11.176;2022-08-03T04:02:10;11.03;;;5.60;;
4698;SDS011;33708;49.466;11.176;2022-08-03T04:04:36;19.73;;;6.03;;
4698;SDS011;33708;49.466;11.176;2022-08-03T04:07:24;13.23;;;7.50;;
4698;SDS011;33708;49.466;11.176;2022-08-03T04:10:11;12.40;;;8.23;;
4698;SDS011;33708;49.466;11.176;2022-08-03T04:12:58;16.80;;;15.00;;
4698;SDS011;33708;49.466;11.176;2022-08-03T04:15:26;17.47;;;15.77;;
4698;SDS011;33708;49.466;11.176;2022-08-03T04:17:54;18.83;;;16.87;;
4698;SDS011;33708;49.466;11.176;2022-08-03T04:20:23;14.73;;;13.30;;
4698;SDS011;33708;49.466;11.176;2022-08-03T04:22:53;14.13;;;11.60;;
4698;SDS011;33708;49.466;11.176;2022-08-03T04:25:20;15.93;;;8.20;;
4698;SDS011;33708;49.466;11.176;2022-08-03T04:27:49;10.50;;;7.20;;
4698;SDS011;33708;49.466;11.176;2022-08-03T04:30:17;10.33;;;6.43;;
4698;SDS011;33708;49.466;11.176;2022-08-03T04:32:43;12.77;;;6.33;;
4698;SDS011;33708;49.466;11.176;2022-08-03T04:35:15;11.73;;;5.50;;
4698;SDS011;33708;49.466;11.176;2022-08-03T04:37:43;15.47;;;5.90;;
4698;SDS011;33708;49.466;11.176;2022-08-03T04:40:19;9.50;;;5.37;;
4698;SDS011;33708;49.466;11.176;2022-08-03T04:42:49;11.43;;;5.50;;
4698;SDS011;33708;49.466;11.176;2022-08-03T04:45:17;10.60;;;4.93;;
4698;SDS011;33708;49.466;11.176;2022-08-03T04:47:44;11.37;;;4.60;;
4698;SDS011;33708;49.466;11.176;2022-08-03T04:50:10;10.30;;;4.70;;
4698;SDS011;33708;49.466;11.176;2022-08-03T04:52:37;12.93;;;4.07;;
4698;SDS011;33708;49.466;11.176;2022-08-03T04:55:03;10.10;;;4.47;;
4698;SDS011;33708;49.466;11.176;2022-08-03T04:57:29;9.93;;;4.30;;
4698;SDS011;33708;49.466;11.176;2022-08-03T04:59:55;14.93;;;5.07;;
4698;SDS011;33708;49.466;11.176;2022-08-03T05:02:21;10.87;;;4.83;;
4698;SDS011;33708;49.466;11.176;2022-08-03T05:04:47;9.13;;;3.97;;
4698;SDS011;33708;49.466;11.176;2022-08-03T05:07:14;9.40;;;4.10;;
4698;SDS011;33708;49.466;11.176;2022-08-03T05:09:41;10.00;;;4.37;;
4698;SDS011;33708;49.466;11.176;2022-08-03T05:12:08;21.70;;;4.40;;
4698;SDS011;33708;49.466;11.176;2022-08-03T05:14:34;9.43;;;4.87;;
4698;SDS011;33708;49.466;11.176;2022-08-03T05:17:04;17.50;;;6.73;;
4698;SDS011;33708;49.466;11.176;2022-08-03T05:19:30;15.20;;;6.20;;
4698;SDS011;33708;49.466;11.176;2022-08-03T05:21:55;13.57;;;6.30;;
4698;SDS011;33708;49.466;11.176;2022-08-03T05:24:21;12.23;;;5.93;;
4698;SDS011;33708;49.466;11.176;2022-08-03T05:26:47;14.83;;;5.87;;
4698;SDS011;33708;49.466;11.176;2022-08-03T05:29:12;19.23;;;7.60;;
4698;SDS011;33708;49.466;11.176;2022-08-03T05:31:38;21.73;;;6.73;;
4698;SDS011;33708;49.466;11.176;2022-08-03T05:34:04;17.23;;;6.83;;
4698;SDS011;33708;49.466;11.176;2022-08-03T05:36:30;17.43;;;7.30;;
4698;SDS011;33708;49.466;11.176;2022-08-03T05:38:56;14.03;;;6.43;;
4698;SDS011;33708;49.466;11.176;2022-08-03T05:41:21;10.13;;;5.73;;
4698;SDS011;33708;49.466;11.176;2022-08-03T05:43:47;13.70;;;6.47;;
4698;SDS011;33708;49.466;11.176;2022-08-03T05:46:13;13.00;;;6.63;;
4698;SDS011;33708;49.466;11.176;2022-08-03T05:48:40;15.90;;;6.70;;
4698;SDS011;33708;49.466;11.176;2022-08-03T05:51:06;16.10;;;6.90;;
4698;SDS011;33708;49.466;11.176;2022-08-03T05:53:35;11.93;;;7.10;;
4698;SDS011;33708;49.466;11.176;2022-08-03T05:56:01;17.83;;;7.70;;
4698;SDS011;33708;49.466;11.176;2022-08-03T05:58:27;15.50;;;6.60;;
4698;SDS011;33708;49.466;11.176;2022-08-03T06:00:53;13.80;;;6.47;;
4698;SDS011;33708;49.466;11.176;2022-08-03T06:03:19;22.73;;;7.30;;
4698;SDS011;33708;49.466;11.176;2022-08-03T06:05:44;13.37;;;6.57;;
4698;SDS011;33708;49.466;11.176;2022-08-03T06:08:10;13.70;;;6.30;;
4698;SDS011;33708;49.466;11.176;2022-08-03T06:10:36;9.20;;;4.50;;
4698;SDS011;33708;49.466;11.176;2022-08-03T06:13:02;10.23;;;4.77;;
4698;SDS011;33708;49.466;11.176;2022-08-03T06:15:28;12.00;;;4.97;;
4698;SDS011;33708;49.466;11.176;2022-08-03T06:17:54;13.60;;;4.97;;
4698;SDS011;33708;49.466;11.176;2022-08-03T06:20:21;10.07;;;5.03;;
4698;SDS011;33708;49.466;11.176;2022-08-03T06:22:47;11.70;;;5.07;;
4698;SDS011;33708;49.466;11.176;2022-08-03T06:25:13;12.70;;;5.97;;
4698;SDS011;33708;49.466;11.176;2022-08-03T06:27:39;17.83;;;5.67;;
4698;SDS011;33708;49.466;11.176;2022-08-03T06:30:08;16.23;;;5.47;;
4698;SDS011;33708;49.466;11.176;2022-08-03T06:32:35;21.23;;;5.60;;
4698;SDS011;33708;49.466;11.176;2022-08-03T06:35:02;14.13;;;5.17;;
4698;SDS011;33708;49.466;11.176;2022-08-03T06:37:29;10.20;;;5.07;;
4698;SDS011;33708;49.466;11.176;2022-08-03T06:39:54;16.13;;;4.70;;
4698;SDS011;33708;49.466;11.176;2022-08-03T06:42:20;10.30;;;5.00;;
4698;SDS011;33708;49.466;11.176;2022-08-03T06:44:45;15.30;;;4.97;;
4698;SDS011;33708;49.466;11.176;2022-08-03T06:47:11;14.00;;;5.27;;
4698;SDS011;33708;49.466;11.176;2022-08-03T06:49:37;12.83;;;4.83;;
4698;SDS011;33708;49.466;11.176;2022-08-03T06:52:02;11.97;;;4.23;;
4698;SDS011;33708;49.466;11.176;2022-08-03T06:54:29;13.27;;;5.10;;
4698;SDS011;33708;49.466;11.176;2022-08-03T06:56:55;12.73;;;4.57;;
4698;SDS011;33708;49.466;11.176;2022-08-03T06:59:20;11.80;;;4.30;;
4698;SDS011;33708;49.466;11.176;2022-08-03T07:01:46;17.90;;;4.00;;
4698;SDS011;33708;49.466;11.176;2022-08-03T07:04:11;9.80;;;5.13;;
4698;SDS011;33708;49.466;11.176;2022-08-03T07:06:37;9.93;;;4.03;;
4698;SDS011;33708;49.466;11.176;2022-08-03T07:09:03;19.07;;;4.37;;
4698;SDS011;33708;49.466;11.176;2022-08-03T07:11:28;18.67;;;5.93;;
4698;SDS011;33708;49.466;11.176;2022-08-03T07:13:54;20.10;;;5.13;;
4698;SDS011;33708;49.466;11.176;2022-08-03T07:16:20;11.23;;;4.20;;
4698;SDS011;33708;49.466;11.176;2022-08-03T07:18:46;21.20;;;4.50;;
4698;SDS011;33708;49.466;11.176;2022-08-03T07:21:12;21.87;;;4.40;;
4698;SDS011;33708;49.466;11.176;2022-08-03T07:23:40;11.93;;;4.80;;
4698;SDS011;33708;49.466;11.176;2022-08-03T07:26:05;13.20;;;4.07;;
4698;SDS011;33708;49.466;11.176;2022-08-03T07:28:31;8.73;;;4.10;;
4698;SDS011;33708;49.466;11.176;2022-08-03T07:30:59;12.57;;;5.10;;
4698;SDS011;33708;49.466;11.176;2022-08-03T07:33:25;10.30;;;4.20;;
4698;SDS011;33708;49.466;11.176;2022-08-03T07:35:50;10.83;;;4.10;;
4698;SDS011;33708;49.466;11.176;2022-08-03T07:38:16;9.77;;;4.30;;
4698;SDS011;33708;49.466;11.176;2022-08-03T07:40:42;12.40;;;4.70;;
4698;SDS011;33708;49.466;11.176;2022-08-03T07:43:07;10.90;;;4.27;;
4698;SDS011;33708;49.466;11.176;2022-08-03T07:45:33;15.60;;;4.03;;
4698;SDS011;33708;49.466;11.176;2022-08-03T07:47:59;11.00;;;4.57;;
4698;SDS011;33708;49.466;11.176;2022-08-03T07:50:24;10.50;;;4.43;;
4698;SDS011;33708;49.466;11.176;2022-08-03T07:52:50;9.57;;;4.13;;
4698;SDS011;33708;49.466;11.176;2022-08-03T07:55:18;13.73;;;4.63;;
4698;SDS011;33708;49.466;11.176;2022-08-03T07:57:45;10.30;;;3.50;;
4698;SDS011;33708;49.466;11.176;2022-08-03T08:00:15;13.43;;;3.90;;
4698;SDS011;33708;49.466;11.176;2022-08-03T08:02:42;7.70;;;3.87;;
4698;SDS011;33708;49.466;11.176;2022-08-03T08:05:09;7.93;;;4.07;;
4698;SDS011;33708;49.466;11.176;2022-08-03T08:07:36;9.93;;;4.07;;
4698;SDS011;33708;49.466;11.176;2022-08-03T08:10:03;11.17;;;4.13;;
4698;SDS011;33708;49.466;11.176;2022-08-03T08:12:30;10.07;;;3.20;;
4698;SDS011;33708;49.466;11.176;2022-08-03T08:14:56;7.23;;;3.57;;
4698;SDS011;33708;49.466;11.176;2022-08-03T08:17:22;13.63;;;4.03;;
4698;SDS011;33708;49.466;11.176;2022-08-03T08:19:48;14.37;;;3.60;;
4698;SDS011;33708;49.466;11.176;2022-08-03T08:22:14;12.73;;;4.03;;
4698;SDS011;33708;49.466;11.176;2022-08-03T08:24:39;11.03;;;3.47;;
4698;SDS011;33708;49.466;11.176;2022-08-03T08:27:07;7.50;;;4.10;;
4698;SDS011;33708;49.466;11.176;2022-08-03T08:29:35;8.35;;;3.83;;
4698;SDS011;33708;49.466;11.176;2022-08-03T08:32:02;6.70;;;3.50;;
4698;SDS011;33708;49.466;11.176;2022-08-03T08:34:28;11.35;;;3.55;;
4698;SDS011;33708;49.466;11.176;2022-08-03T08:36:53;7.78;;;3.78;;
4698;SDS011;33708;49.466;11.176;2022-08-03T08:39:19;11.00;;;3.90;;
4698;SDS011;33708;49.466;11.176;2022-08-03T08:41:45;7.75;;;3.60;;
4698;SDS011;33708;49.466;11.176;2022-08-03T08:44:11;17.98;;;3.15;;
4698;SDS011;33708;49.466;11.176;2022-08-03T08:46:36;9.48;;;3.20;;
4698;SDS011;33708;49.466;11.176;2022-08-03T08:49:03;6.90;;;3.22;;
4698;SDS011;33708;49.466;11.176;2022-08-03T08:51:33;8.38;;;3.20;;
4698;SDS011;33708;49.466;11.176;2022-08-03T08:54:01;6.20;;;3.70;;
4698;SDS011;33708;49.466;11.176;2022-08-03T08:56:28;14.40;;;3.75;;
4698;SDS011;33708;49.466;11.176;2022-08-03T08:58:59;7.50;;;2.90;;
4698;SDS011;33708;49.466;11.176;2022-08-03T09:01:26;6.70;;;3.17;;
4698;SDS011;33708;49.466;11.176;2022-08-03T09:03:52;11.73;;;3.37;;
4698;SDS011;33708;49.466;11.176;2022-08-03T09:06:19;6.90;;;3.00;;
4698;SDS011;33708;49.466;11.176;2022-08-03T09:08:45;9.00;;;3.57;;
4698;SDS011;33708;49.466;11.176;2022-08-03T09:11:11;13.40;;;3.37;;
4698;SDS011;33708;49.466;11.176;2022-08-03T09:13:37;10.20;;;3.37;;
4698;SDS011;33708;49.466;11.176;2022-08-03T09:16:10;8.17;;;3.33;;
4698;SDS011;33708;49.466;11.176;2022-08-03T09:18:47;7.73;;;3.20;;
4698;SDS011;33708;49.466;11.176;2022-08-03T09:21:16;8.13;;;2.97;;
4698;SDS011;33708;49.466;11.176;2022-08-03T09:23:47;8.20;;;3.40;;
4698;SDS011;33708;49.466;11.176;2022-08-03T09:26:21;8.83;;;3.13;;
4698;SDS011;33708;49.466;11.176;2022-08-03T09:29:01;6.10;;;3.40;;
4698;SDS011;33708;49.466;11.176;2022-08-03T09:31:36;6.27;;;2.80;;
4698;SDS011;33708;49.466;11.176;2022-08-03T09:34:06;15.00;;;3.47;;
4698;SDS011;33708;49.466;11.176;2022-08-03T09:36:51;7.67;;;3.00;;
4698;SDS011;33708;49.466;11.176;2022-08-03T09:39:18;9.47;;;2.47;;
4698;SDS011;33708;49.466;11.176;2022-08-03T09:41:46;8.83;;;3.10;;
4698;SDS011;33708;49.466;11.176;2022-08-03T09:44:36;5.00;;;2.20;;
4698;SDS011;33708;49.466;11.176;2022-08-03T09:47:10;6.27;;;2.17;;
4698;SDS011;33708;49.466;11.176;2022-08-03T09:49:37;6.90;;;1.83;;
4698;SDS011;33708;49.466;11.176;2022-08-03T09:52:13;6.17;;;1.87;;
4698;SDS011;33708;49.466;11.176;2022-08-03T09:54:40;5.40;;;1.80;;
4698;SDS011;33708;49.466;11.176;2022-08-03T09:57:06;5.63;;;1.73;;
4698;SDS011;33708;49.466;11.176;2022-08-03T09:59:32;5.73;;;2.20;;
4698;SDS011;33708;49.466;11.176;2022-08-03T10:01:58;5.30;;;1.90;;
4698;SDS011;33708;49.466;11.176;2022-08-03T10:04:24;6.10;;;2.03;;
4698;SDS011;33708;49.466;11.176;2022-08-03T10:09:33;7.73;;;2.57;;
4698;SDS011;33708;49.466;11.176;2022-08-03T10:12:06;7.40;;;2.23;;
4698;SDS011;33708;49.466;11.176;2022-08-03T10:14:33;6.60;;;2.23;;
4698;SDS011;33708;49.466;11.176;2022-08-03T10:17:05;5.40;;;2.13;;
4698;SDS011;33708;49.466;11.176;2022-08-03T10:19:32;5.60;;;2.37;;
4698;SDS011;33708;49.466;11.176;2022-08-03T10:22:01;6.87;;;2.23;;
4698;SDS011;33708;49.466;11.176;2022-08-03T10:24:34;6.20;;;2.03;;
4698;SDS011;33708;49.466;11.176;2022-08-03T10:27:05;6.03;;;2.57;;
4698;SDS011;33708;49.466;11.176;2022-08-03T10:29:35;8.63;;;2.50;;
4698;SDS011;33708;49.466;11.176;2022-08-03T10:32:03;6.37;;;2.33;;
4698;SDS011;33708;49.466;11.176;2022-08-03T10:35:05;6.70;;;2.27;;
4698;SDS011;33708;49.466;11.176;2022-08-03T10:37:36;6.60;;;2.10;;
4698;SDS011;33708;49.466;11.176;2022-08-03T10:40:06;6.37;;;2.20;;
4698;SDS011;33708;49.466;11.176;2022-08-03T10:42:34;10.20;;;2.80;;
4698;SDS011;33708;49.466;11.176;2022-08-03T10:45:05;11.10;;;2.60;;
4698;SDS011;33708;49.466;11.176;2022-08-03T10:47:36;9.50;;;2.47;;
4698;SDS011;33708;49.466;11.176;2022-08-03T10:50:02;12.47;;;2.70;;
4698;SDS011;33708;49.466;11.176;2022-08-03T10:52:28;11.03;;;2.80;;
4698;SDS011;33708;49.466;11.176;2022-08-03T10:54:54;6.20;;;2.80;;
4698;SDS011;33708;49.466;11.176;2022-08-03T10:57:49;6.30;;;2.40;;
4698;SDS011;33708;49.466;11.176;2022-08-03T11:00:19;8.20;;;2.33;;
4698;SDS011;33708;49.466;11.176;2022-08-03T11:03:02;11.40;;;2.20;;
4698;SDS011;33708;49.466;11.176;2022-08-03T11:05:34;8.03;;;2.03;;
4698;SDS011;33708;49.466;11.176;2022-08-03T11:08:20;6.57;;;2.20;;
4698;SDS011;33708;49.466;11.176;2022-08-03T11:10:57;4.90;;;1.57;;
4698;SDS011;33708;49.466;11.176;2022-08-03T11:16:28;5.73;;;2.10;;
4698;SDS011;33708;49.466;11.176;2022-08-03T11:19:00;5.33;;;1.63;;
4698;SDS011;33708;49.466;11.176;2022-08-03T11:35:12;11.70;;;2.10;;
4698;SDS011;33708;49.466;11.176;2022-08-03T11:40:35;6.17;;;1.77;;
4698;SDS011;33708;49.466;11.176;2022-08-03T11:43:42;7.40;;;2.00;;
4698;SDS011;33708;49.466;11.176;2022-08-03T11:46:02;5.43;;;1.67;;
4698;SDS011;33708;49.466;11.176;2022-08-03T11:51:25;4.80;;;1.40;;
4698;SDS011;33708;49.466;11.176;2022-08-03T11:53:54;4.77;;;1.37;;
4698;SDS011;33708;49.466;11.176;2022-08-03T11:56:22;4.80;;;1.40;;
4698;SDS011;33708;49.466;11.176;2022-08-03T11:58:49;8.83;;;1.77;;
4698;SDS011;33708;49.466;11.176;2022-08-03T12:01:17;4.60;;;1.20;;
4698;SDS011;33708;49.466;11.176;2022-08-03T12:03:44;4.70;;;1.50;;
4698;SDS011;33708;49.466;11.176;2022-08-03T12:06:10;6.50;;;1.70;;
4698;SDS011;33708;49.466;11.176;2022-08-03T12:08:38;5.20;;;1.50;;
4698;SDS011;33708;49.466;11.176;2022-08-03T12:11:05;8.37;;;1.70;;
4698;SDS011;33708;49.466;11.176;2022-08-03T12:13:39;5.20;;;1.20;;
4698;SDS011;33708;49.466;11.176;2022-08-03T12:16:16;5.47;;;1.30;;
4698;SDS011;33708;49.466;11.176;2022-08-03T12:18:56;20.83;;;2.20;;
4698;SDS011;33708;49.466;11.176;2022-08-03T12:21:23;5.73;;;1.90;;
4698;SDS011;33708;49.466;11.176;2022-08-03T12:23:49;8.53;;;1.80;;
4698;SDS011;33708;49.466;11.176;2022-08-03T12:26:18;5.23;;;1.50;;
4698;SDS011;33708;49.466;11.176;2022-08-03T12:28:47;5.53;;;1.50;;
4698;SDS011;33708;49.466;11.176;2022-08-03T12:31:13;4.80;;;1.23;;
4698;SDS011;33708;49.466;11.176;2022-08-03T12:36:32;5.13;;;1.60;;
4698;SDS011;33708;49.466;11.176;2022-08-03T12:39:00;4.73;;;1.50;;
4698;SDS011;33708;49.466;11.176;2022-08-03T12:41:29;4.70;;;1.20;;
4698;SDS011;33708;49.466;11.176;2022-08-03T12:43:56;8.50;;;2.10;;
4698;SDS011;33708;49.466;11.176;2022-08-03T12:46:22;9.90;;;1.73;;
4698;SDS011;33708;49.466;11.176;2022-08-03T12:49:03;15.50;;;2.00;;
4698;SDS011;33708;49.466;11.176;2022-08-03T12:51:54;6.80;;;1.80;;
4698;SDS011;33708;49.466;11.176;2022-08-03T12:54:25;6.00;;;1.60;;
4698;SDS011;33708;49.466;11.176;2022-08-03T12:59:33;10.70;;;1.53;;
4698;SDS011;33708;49.466;11.176;2022-08-03T13:02:00;6.20;;;1.63;;
4698;SDS011;33708;49.466;11.176;2022-08-03T13:04:31;6.40;;;1.60;;
4698;SDS011;33708;49.466;11.176;2022-08-03T13:07:02;6.73;;;1.50;;
4698;SDS011;33708;49.466;11.176;2022-08-03T13:09:29;5.67;;;1.30;;
4698;SDS011;33708;49.466;11.176;2022-08-03T13:12:07;9.10;;;1.50;;
4698;SDS011;33708;49.466;11.176;2022-08-03T13:14:35;5.30;;;1.50;;
4698;SDS011;33708;49.466;11.176;2022-08-03T13:17:01;6.20;;;1.27;;
4698;SDS011;33708;49.466;11.176;2022-08-03T13:19:27;5.60;;;2.07;;
4698;SDS011;33708;49.466;11.176;2022-08-03T13:21:53;7.77;;;1.70;;
4698;SDS011;33708;49.466;11.176;2022-08-03T13:24:19;11.30;;;1.60;;
4698;SDS011;33708;49.466;11.176;2022-08-03T13:26:44;7.53;;;1.60;;
4698;SDS011;33708;49.466;11.176;2022-08-03T13:29:10;6.47;;;1.70;;
4698;SDS011;33708;49.466;11.176;2022-08-03T13:31:35;5.40;;;1.53;;
4698;SDS011;33708;49.466;11.176;2022-08-03T13:34:01;7.33;;;1.80;;
4698;SDS011;33708;49.466;11.176;2022-08-03T13:36:27;8.40;;;1.90;;
4698;SDS011;33708;49.466;11.176;2022-08-03T13:38:52;8.20;;;2.10;;
4698;SDS011;33708;49.466;11.176;2022-08-03T13:41:18;8.23;;;2.17;;
4698;SDS011;33708;49.466;11.176;2022-08-03T13:43:44;8.13;;;1.50;;
4698;SDS011;33708;49.466;11.176;2022-08-03T13:46:09;5.27;;;1.60;;
4698;SDS011;33708;49.466;11.176;2022-08-03T13:48:35;5.93;;;1.40;;
4698;SDS011;33708;49.466;11.176;2022-08-03T13:51:00;6.50;;;1.40;;
4698;SDS011;33708;49.466;11.176;2022-08-03T13:53:26;11.07;;;1.70;;
4698;SDS011;33708;49.466;11.176;2022-08-03T13:55:52;5.20;;;1.47;;
4698;SDS011;33708;49.466;11.176;2022-08-03T13:58:17;6.90;;;1.53;;
4698;SDS011;33708;49.466;11.176;2022-08-03T14:00:43;8.70;;;1.97;;
4698;SDS011;33708;49.466;11.176;2022-08-03T14:03:09;7.87;;;1.80;;
4698;SDS011;33708;49.466;11.176;2022-08-03T14:05:34;5.77;;;1.47;;
4698;SDS011;33708;49.466;11.176;2022-08-03T14:08:02;6.73;;;1.43;;
4698;SDS011;33708;49.466;11.176;2022-08-03T14:10:31;6.63;;;1.90;;
4698;SDS011;33708;49.466;11.176;2022-08-03T14:12:57;5.43;;;1.70;;
4698;SDS011;33708;49.466;11.176;2022-08-03T14:15:24;5.67;;;1.70;;
4698;SDS011;33708;49.466;11.176;2022-08-03T14:17:50;7.30;;;1.80;;
4698;SDS011;33708;49.466;11.176;2022-08-03T14:20:16;5.77;;;1.57;;
4698;SDS011;33708;49.466;11.176;2022-08-03T14:22:42;7.33;;;2.00;;
4698;SDS011;33708;49.466;11.176;2022-08-03T14:25:07;5.10;;;1.70;;
4698;SDS011;33708;49.466;11.176;2022-08-03T14:27:33;12.23;;;2.00;;
4698;SDS011;33708;49.466;11.176;2022-08-03T14:29:58;5.30;;;1.57;;
4698;SDS011;33708;49.466;11.176;2022-08-03T14:32:25;4.90;;;1.43;;
4698;SDS011;33708;49.466;11.176;2022-08-03T14:34:51;7.50;;;2.10;;
4698;SDS011;33708;49.466;11.176;2022-08-03T14:37:17;6.40;;;1.70;;
4698;SDS011;33708;49.466;11.176;2022-08-03T14:39:43;9.93;;;1.73;;
4698;SDS011;33708;49.466;11.176;2022-08-03T14:42:10;5.60;;;1.87;;
4698;SDS011;33708;49.466;11.176;2022-08-03T14:44:37;6.13;;;1.57;;
4698;SDS011;33708;49.466;11.176;2022-08-03T14:47:02;7.70;;;1.73;;
4698;SDS011;33708;49.466;11.176;2022-08-03T14:49:28;4.80;;;1.40;;
4698;SDS011;33708;49.466;11.176;2022-08-03T14:51:54;5.43;;;1.50;;
4698;SDS011;33708;49.466;11.176;2022-08-03T14:54:20;5.30;;;1.40;;
4698;SDS011;33708;49.466;11.176;2022-08-03T14:56:46;5.20;;;1.80;;
4698;SDS011;33708;49.466;11.176;2022-08-03T14:59:12;6.43;;;1.27;;
4698;SDS011;33708;49.466;11.176;2022-08-03T15:01:37;7.57;;;1.80;;
4698;SDS011;33708;49.466;11.176;2022-08-03T15:04:03;5.87;;;1.50;;
4698;SDS011;33708;49.466;11.176;2022-08-03T15:06:29;5.83;;;1.57;;
4698;SDS011;33708;49.466;11.176;2022-08-03T15:08:54;7.60;;;1.90;;
4698;SDS011;33708;49.466;11.176;2022-08-03T15:11:20;5.43;;;1.20;;
4698;SDS011;33708;49.466;11.176;2022-08-03T15:13:45;5.00;;;1.60;;
4698;SDS011;33708;49.466;11.176;2022-08-03T15:16:11;6.90;;;1.67;;
4698;SDS011;33708;49.466;11.176;2022-08-03T15:18:37;4.70;;;1.30;;
4698;SDS011;33708;49.466;11.176;2022-08-03T15:21:02;6.30;;;2.23;;
4698;SDS011;33708;49.466;11.176;2022-08-03T15:23:28;7.57;;;1.40;;
4698;SDS011;33708;49.466;11.176;2022-08-03T15:25:53;6.93;;;1.83;;
4698;SDS011;33708;49.466;11.176;2022-08-03T15:28:19;6.70;;;1.73;;